Time;durP1;ratioP1;P1;durP2;ratioP2;P2;SDS_P1;SDS_P2;PMS_P1;PMS_P2;Temp;Humidity;BMP_temperature;BMP_pressure;BME280_temperature;BME280_humidity;BME280_pressure;Samples;Min_cycle;Max_cycle;Signal;HPM_P1;HPM_P2
2022/04/17 00:01:50;;;;;;;3.85;2.60;;;10.10;45.70;;;;;;5070604;28;20044;-44
2022/04/17 00:04:19;;;;;;;3.20;2.47;;;10.10;45.80;;;;;;5069942;28;20044;-50
2022/04/17 00:06:46;;;;;;;2.58;2.38;;;10.10;46.10;;;;;;5062762;28;20036;-50
2022/04/17 00:09:13;;;;;;;2.95;2.60;;;10.00;45.80;;;;;;5070101;28;20449;-48
2022/04/17 00:11:41;;;;;;;3.63;2.90;;;10.00;45.90;;;;;;5070126;28;20048;-45
2022/04/17 00:14:10;;;;;;;3.45;2.35;;;10.00;46.10;;;;;;5060150;28;20040;-48
2022/04/17 00:16:40;;;;;;;2.63;2.42;;;10.00;46.20;;;;;;5060949;28;20110;-45
2022/04/17 00:19:08;;;;;;;2.47;2.30;;;9.90;46.20;;;;;;5069677;28;20044;-49
2022/04/17 00:21:35;;;;;;;2.78;2.20;;;9.90;46.30;;;;;;5069742;28;20496;-45
2022/04/17 00:24:02;;;;;;;2.80;2.22;;;9.90;46.40;;;;;;5066205;28;20040;-46
2022/04/17 00:26:31;;;;;;;3.38;2.47;;;9.80;46.30;;;;;;5068949;28;20037;-46
2022/04/17 00:28:58;;;;;;;4.47;2.90;;;9.80;46.40;;;;;;5069254;28;20098;-49
2022/04/17 00:31:27;;;;;;;3.70;2.50;;;9.80;46.50;;;;;;5067861;28;20059;-50
2022/04/17 00:33:57;;;;;;;3.15;2.85;;;9.70;46.60;;;;;;5063293;28;20044;-46
2022/04/17 00:36:26;;;;;;;4.55;2.70;;;9.70;46.60;;;;;;5067498;28;20079;-50
2022/04/17 00:38:53;;;;;;;3.50;2.88;;;9.70;46.50;;;;;;5068196;28;20078;-47
2022/04/17 00:41:20;;;;;;;3.88;2.72;;;9.60;46.40;;;;;;5069324;28;20049;-46
2022/04/17 00:43:50;;;;;;;2.90;2.63;;;9.60;46.60;;;;;;5063261;28;20547;-46
2022/04/17 00:46:17;;;;;;;5.22;2.25;;;9.60;46.50;;;;;;5066950;28;20090;-46
2022/04/17 00:48:46;;;;;;;4.28;2.80;;;9.60;46.60;;;;;;5069959;28;20120;-46
2022/04/17 00:51:15;;;;;;;3.83;2.22;;;9.60;46.70;;;;;;5062644;28;20099;-47
2022/04/17 00:53:45;;;;;;;7.65;2.70;;;9.60;46.90;;;;;;5063217;28;20071;-46
2022/04/17 00:56:12;;;;;;;3.42;2.80;;;9.50;47.00;;;;;;5068583;28;20496;-48
2022/04/17 00:58:39;;;;;;;4.43;2.90;;;9.60;47.00;;;;;;5069176;28;20520;-50
2022/04/17 01:01:06;;;;;;;3.80;2.55;;;9.50;47.00;;;;;;5066167;28;20029;-47
2022/04/17 01:03:32;;;;;;;4.20;2.67;;;9.50;47.10;;;;;;5044026;28;20709;-48
2022/04/17 01:06:01;;;;;;;3.15;2.38;;;9.50;47.10;;;;;;5067879;28;20065;-46
2022/04/17 01:08:28;;;;;;;3.55;2.45;;;9.40;47.10;;;;;;5048867;28;20441;-46
2022/04/17 01:10:58;;;;;;;4.45;2.47;;;9.40;47.30;;;;;;5052867;28;20091;-50
2022/04/17 01:13:31;;;;;;;3.03;2.60;;;9.40;46.90;;;;;;5067312;28;20040;-48
2022/04/17 01:16:03;;;;;;;2.87;2.60;;;9.40;47.20;;;;;;5069241;28;20049;-45
2022/04/17 01:18:30;;;;;;;3.70;2.90;;;9.40;47.20;;;;;;5069441;28;20628;-49
2022/04/17 01:20:57;;;;;;;4.93;2.95;;;9.40;47.00;;;;;;5065647;28;20559;-47
2022/04/17 01:28:58;;;;;;;5.20;3.35;;;9.40;47.20;;;;;;5067104;28;20115;-49
2022/04/17 01:31:27;;;;;;;4.80;2.85;;;9.40;47.30;;;;;;5065527;28;20055;-49
2022/04/17 01:33:54;;;;;;;4.65;3.08;;;9.40;47.40;;;;;;5069262;28;20036;-50
2022/04/17 01:36:20;;;;;;;3.30;3.00;;;9.40;47.50;;;;;;5050742;28;20036;-49
2022/04/17 01:38:51;;;;;;;3.25;2.83;;;9.30;47.50;;;;;;5067815;28;20518;-51
2022/04/17 01:41:18;;;;;;;6.03;3.00;;;9.30;47.60;;;;;;5070827;28;20097;-50
2022/04/17 01:43:47;;;;;;;6.93;3.03;;;9.30;47.60;;;;;;5073123;28;20094;-47
2022/04/17 01:46:14;;;;;;;6.65;3.08;;;9.30;47.60;;;;;;5072270;28;20454;-49
2022/04/17 01:48:41;;;;;;;5.63;3.00;;;9.20;47.70;;;;;;5066891;28;20087;-49
2022/04/17 01:51:08;;;;;;;3.88;2.92;;;9.20;47.80;;;;;;5070682;28;20074;-50
2022/04/17 01:53:35;;;;;;;4.78;2.95;;;9.20;47.90;;;;;;5073091;28;20062;-49
2022/04/17 01:56:01;;;;;;;3.53;2.85;;;9.20;47.90;;;;;;5071051;28;20102;-48
2022/04/17 01:58:28;;;;;;;4.68;3.15;;;9.20;48.70;;;;;;5051413;28;20051;-50
2022/04/17 02:00:55;;;;;;;4.53;2.92;;;9.20;48.10;;;;;;5072222;28;20568;-48
2022/04/17 02:03:22;;;;;;;4.20;3.05;;;9.10;48.00;;;;;;5072610;28;20052;-49
2022/04/17 02:05:51;;;;;;;4.03;2.75;;;9.10;48.10;;;;;;5071595;28;20072;-50
2022/04/17 02:08:18;;;;;;;4.05;3.17;;;9.10;48.40;;;;;;5062763;28;20071;-48
2022/04/17 02:10:47;;;;;;;3.55;2.90;;;9.10;48.30;;;;;;5071686;28;20747;-47
2022/04/17 02:13:14;;;;;;;3.78;2.85;;;9.10;48.40;;;;;;5072345;28;20500;-48
2022/04/17 02:15:44;;;;;;;3.25;2.50;;;9.00;48.40;;;;;;5076878;28;20101;-49
2022/04/17 02:18:16;;;;;;;4.32;2.58;;;9.00;48.70;;;;;;5066750;28;20028;-45
2022/04/17 02:20:45;;;;;;;3.88;2.63;;;9.00;48.50;;;;;;5072147;28;20037;-49
2022/04/17 02:23:12;;;;;;;3.63;2.70;;;8.90;48.40;;;;;;5072481;28;20044;-47
2022/04/17 02:25:40;;;;;;;3.67;2.72;;;8.90;48.40;;;;;;5065946;28;20559;-48
2022/04/17 02:28:09;;;;;;;7.13;3.08;;;8.90;48.60;;;;;;5068427;28;20063;-48
2022/04/17 02:30:36;;;;;;;2.78;2.58;;;8.80;48.60;;;;;;5072243;28;20472;-49
2022/04/17 02:33:03;;;;;;;3.63;2.90;;;8.80;48.70;;;;;;5072238;28;20072;-49
2022/04/17 02:35:32;;;;;;;3.90;3.10;;;8.70;48.70;;;;;;5066293;28;20045;-49
2022/04/17 02:37:59;;;;;;;4.25;2.72;;;8.70;49.00;;;;;;5070550;28;20478;-44
2022/04/17 02:40:25;;;;;;;3.17;2.75;;;8.60;48.80;;;;;;5071634;28;20048;-48
2022/04/17 02:42:53;;;;;;;4.30;3.08;;;8.60;48.90;;;;;;5069265;28;20029;-50
2022/04/17 02:45:26;;;;;;;3.17;2.88;;;8.60;49.70;;;;;;5065402;28;20040;-48
2022/04/17 02:47:53;;;;;;;3.47;3.17;;;8.50;49.20;;;;;;5071539;28;20099;-49
2022/04/17 02:50:22;;;;;;;5.38;3.17;;;8.50;49.10;;;;;;5071134;28;20538;-49
2022/04/17 02:52:55;;;;;;;4.53;3.25;;;8.40;49.10;;;;;;5069510;28;20091;-48
2022/04/17 02:55:22;;;;;;;3.08;2.78;;;8.40;49.60;;;;;;5069000;28;20044;-50
2022/04/17 02:57:48;;;;;;;3.70;2.65;;;8.40;49.30;;;;;;5071481;28;20044;-48
2022/04/17 03:00:16;;;;;;;3.83;2.90;;;8.30;49.40;;;;;;5071510;28;20070;-45
2022/04/17 03:05:36;;;;;;;3.63;2.95;;;8.20;49.50;;;;;;5065717;28;20037;-49
2022/04/17 03:08:14;;;;;;;3.80;3.13;;;8.20;49.50;;;;;;5072083;28;20044;-50
2022/04/17 03:10:48;;;;;;;4.18;2.65;;;8.20;50.10;;;;;;5063429;28;20037;-46
2022/04/17 03:13:17;;;;;;;3.78;3.10;;;8.10;49.90;;;;;;5068504;28;20040;-45
2022/04/17 03:15:44;;;;;;;3.50;2.90;;;8.10;49.90;;;;;;5070451;28;20087;-48
2022/04/17 03:18:11;;;;;;;2.67;2.33;;;8.00;49.70;;;;;;5053555;28;20492;-45
2022/04/17 03:20:37;;;;;;;3.78;2.85;;;8.00;49.80;;;;;;5068807;28;20504;-48
2022/04/17 03:23:04;;;;;;;3.78;2.85;;;8.00;50.00;;;;;;5062975;28;20090;-45
2022/04/17 03:25:31;;;;;;;4.03;2.97;;;7.90;50.00;;;;;;5068938;28;20553;-46
2022/04/17 03:28:00;;;;;;;4.82;3.35;;;7.90;50.10;;;;;;5071309;28;20406;-44
2022/04/17 03:30:27;;;;;;;3.47;2.85;;;7.80;50.10;;;;;;5052434;28;20067;-48
2022/04/17 03:32:54;;;;;;;3.42;3.13;;;7.80;50.20;;;;;;5050661;28;20040;-46
2022/04/17 03:35:20;;;;;;;5.32;3.15;;;7.80;50.20;;;;;;5069954;28;20563;-49
2022/04/17 03:37:54;;;;;;;4.78;3.53;;;7.70;50.20;;;;;;5070769;28;20101;-46
2022/04/17 03:40:21;;;;;;;3.67;3.38;;;7.70;51.00;;;;;;5069593;28;20032;-49
2022/04/17 03:42:49;;;;;;;7.60;3.38;;;7.60;50.40;;;;;;5064024;28;20067;-48
2022/04/17 03:45:17;;;;;;;4.47;2.95;;;7.60;50.50;;;;;;5052007;28;20493;-49
2022/04/17 03:47:46;;;;;;;3.75;2.90;;;7.60;50.50;;;;;;5068218;28;20047;-47
2022/04/17 03:50:13;;;;;;;3.45;2.90;;;7.60;50.70;;;;;;5066900;28;20068;-46
2022/04/17 03:52:43;;;;;;;4.15;3.03;;;7.60;50.70;;;;;;5068516;28;20121;-49
2022/04/17 03:55:11;;;;;;;4.22;3.20;;;7.50;50.80;;;;;;5067762;28;20185;-46
2022/04/17 03:57:38;;;;;;;3.60;3.03;;;7.50;50.80;;;;;;5069229;28;20102;-49
2022/04/17 04:00:09;;;;;;;4.10;3.30;;;7.50;50.80;;;;;;5066790;28;20069;-46
2022/04/17 04:02:40;;;;;;;3.55;3.13;;;7.40;51.10;;;;;;5068657;28;20037;-46
2022/04/17 04:05:08;;;;;;;3.95;2.60;;;7.40;50.90;;;;;;5066632;28;20028;-49
2022/04/17 04:07:42;;;;;;;4.50;2.72;;;7.40;51.00;;;;;;5065544;28;20081;-49
2022/04/17 04:10:09;;;;;;;3.17;2.47;;;7.30;50.90;;;;;;5067600;28;20086;-49
2022/04/17 04:12:37;;;;;;;3.22;2.67;;;7.30;51.00;;;;;;5066577;28;20063;-46
2022/04/17 04:15:05;;;;;;;4.65;2.75;;;7.30;51.10;;;;;;5048380;28;20048;-46
2022/04/17 04:17:32;;;;;;;2.78;2.42;;;7.20;51.10;;;;;;5067956;28;20119;-46
2022/04/17 04:19:59;;;;;;;4.72;2.58;;;7.20;51.20;;;;;;5067256;28;20128;-48
2022/04/17 04:22:26;;;;;;;3.67;2.88;;;7.20;51.30;;;;;;5069495;28;20040;-49
2022/04/17 04:24:55;;;;;;;3.13;2.33;;;7.10;51.30;;;;;;5069221;28;20044;-47
2022/04/17 04:30:12;;;;;;;2.95;2.20;;;7.10;51.40;;;;;;5066434;28;20033;-46
2022/04/17 04:32:39;;;;;;;4.28;2.88;;;7.00;51.30;;;;;;5070212;28;20037;-47
2022/04/17 04:35:07;;;;;;;3.28;2.88;;;7.00;51.50;;;;;;5069422;28;20143;-46
2022/04/17 04:37:34;;;;;;;2.80;2.35;;;6.90;51.60;;;;;;5067960;28;20033;-48
2022/04/17 04:40:06;;;;;;;6.00;3.08;;;6.90;51.70;;;;;;5067595;28;20067;-45
2022/04/17 04:42:32;;;;;;;3.40;2.55;;;6.90;51.80;;;;;;5069930;28;20045;-46
2022/04/17 04:47:45;;;;;;;4.43;2.95;;;6.80;51.80;;;;;;5067494;28;20037;-48
2022/04/17 04:50:11;;;;;;;3.25;2.95;;;6.80;51.80;;;;;;5068353;28;20036;-45
2022/04/17 04:52:38;;;;;;;3.20;2.60;;;6.80;52.00;;;;;;5070277;28;20385;-45
2022/04/17 04:55:05;;;;;;;4.55;3.30;;;6.80;52.10;;;;;;5069461;28;20048;-45
2022/04/17 04:57:38;;;;;;;6.45;3.35;;;6.80;52.20;;;;;;5046775;28;20060;-47
2022/04/17 05:00:07;;;;;;;5.70;2.90;;;6.80;52.50;;;;;;5070505;28;20040;-48
2022/04/17 05:02:35;;;;;;;3.22;2.92;;;6.80;52.40;;;;;;5050649;28;20068;-49
2022/04/17 05:05:05;;;;;;;6.13;3.67;;;6.80;52.50;;;;;;5032162;28;20090;-45
2022/04/17 05:07:32;;;;;;;4.38;3.25;;;6.80;52.70;;;;;;5064143;28;20105;-46
2022/04/17 05:10:02;;;;;;;4.47;3.63;;;6.80;52.70;;;;;;5070461;28;20520;-45
2022/04/17 05:12:29;;;;;;;4.90;3.30;;;6.80;52.70;;;;;;5049515;28;20099;-49
2022/04/17 05:14:56;;;;;;;3.30;3.00;;;6.80;52.80;;;;;;5062170;28;20041;-48
2022/04/17 05:17:22;;;;;;;4.95;3.63;;;6.90;52.80;;;;;;5074283;28;20063;-48
2022/04/17 05:19:50;;;;;;;3.70;3.28;;;6.90;52.90;;;;;;5070245;28;20114;-46
2022/04/17 05:22:21;;;;;;;3.28;2.97;;;6.90;53.10;;;;;;5071644;28;20064;-46
2022/04/17 05:24:48;;;;;;;3.97;3.47;;;6.90;53.30;;;;;;5069418;28;20507;-46
2022/04/17 05:27:15;;;;;;;4.40;3.08;;;6.90;53.10;;;;;;5071222;28;20079;-48
2022/04/17 05:29:44;;;;;;;3.67;2.72;;;7.00;53.20;;;;;;5130648;22;20293;-48
2022/04/17 05:32:10;;;;;;;3.90;2.75;;;7.00;53.20;;;;;;5070409;28;20155;-44
2022/04/17 05:34:37;;;;;;;4.40;3.28;;;7.00;53.20;;;;;;5065955;28;20044;-45
2022/04/17 05:37:04;;;;;;;5.03;3.47;;;7.00;53.20;;;;;;5069560;28;20044;-44
2022/04/17 05:39:31;;;;;;;8.45;3.60;;;7.00;53.20;;;;;;5071473;28;20743;-43
2022/04/17 05:42:01;;;;;;;3.42;3.13;;;7.00;53.30;;;;;;5048204;28;20029;-47
2022/04/17 05:44:28;;;;;;;4.47;3.60;;;7.10;53.50;;;;;;5049974;28;20228;-45
2022/04/17 05:46:56;;;;;;;4.82;3.45;;;7.10;53.60;;;;;;5051074;28;20080;-44
2022/04/17 05:49:23;;;;;;;6.15;3.50;;;7.10;53.70;;;;;;5051870;28;20098;-43
2022/04/17 05:51:53;;;;;;;4.32;3.10;;;7.20;53.90;;;;;;5047090;28;20458;-46
2022/04/17 05:54:21;;;;;;;4.15;3.72;;;7.20;54.00;;;;;;5044477;28;20068;-47
2022/04/17 05:56:47;;;;;;;5.50;3.35;;;7.20;54.10;;;;;;5050277;28;20114;-45
2022/04/17 05:59:14;;;;;;;4.78;3.65;;;7.30;54.20;;;;;;5051215;28;20449;-50
2022/04/17 06:01:43;;;;;;;4.32;3.65;;;7.30;54.30;;;;;;5048346;28;20115;-46
2022/04/17 06:04:15;;;;;;;4.57;3.30;;;7.40;54.40;;;;;;5016717;28;20935;-51
2022/04/17 06:06:42;;;;;;;5.07;3.50;;;7.40;54.30;;;;;;5026516;28;20284;-48
2022/04/17 06:09:10;;;;;;;4.30;3.33;;;7.50;54.40;;;;;;5017374;28;20156;-44
2022/04/17 06:11:37;;;;;;;3.83;3.42;;;7.50;54.30;;;;;;5026597;28;20127;-49
2022/04/17 06:14:04;;;;;;;3.38;3.03;;;7.60;54.40;;;;;;5027353;28;20065;-44
2022/04/17 06:16:32;;;;;;;4.43;2.67;;;7.60;54.40;;;;;;5038140;28;20052;-47
2022/04/17 06:18:59;;;;;;;5.63;3.45;;;7.70;54.30;;;;;;5037907;28;20833;-44
2022/04/17 06:21:28;;;;;;;4.45;2.80;;;7.80;54.20;;;;;;5037002;28;20048;-45
2022/04/17 06:23:55;;;;;;;3.83;3.25;;;7.90;54.00;;;;;;5043422;28;20091;-44
2022/04/17 06:26:22;;;;;;;4.28;2.83;;;8.00;53.70;;;;;;5023740;28;20394;-45
2022/04/17 06:28:48;;;;;;;3.10;2.80;;;8.10;53.70;;;;;;5030263;28;20061;-43
2022/04/17 06:31:15;;;;;;;4.78;3.00;;;8.20;53.40;;;;;;5015546;28;20069;-50
2022/04/17 06:33:42;;;;;;;4.88;2.78;;;8.30;53.20;;;;;;5042030;28;20115;-46
2022/04/17 06:36:08;;;;;;;3.13;2.83;;;8.40;53.00;;;;;;5025191;28;20057;-46
2022/04/17 06:38:35;;;;;;;8.70;2.90;;;8.60;52.90;;;;;;5032608;28;20068;-43
2022/04/17 06:41:02;;;;;;;4.00;2.30;;;8.70;52.70;;;;;;5032596;28;20484;-47
2022/04/17 06:43:29;;;;;;;3.83;2.42;;;8.80;52.50;;;;;;5050612;28;20120;-48
2022/04/17 06:45:56;;;;;;;2.42;2.22;;;9.00;52.50;;;;;;5029464;28;20037;-46
2022/04/17 06:48:23;;;;;;;3.30;2.60;;;9.10;52.20;;;;;;5032178;28;20056;-45
2022/04/17 06:50:52;;;;;;;4.38;2.78;;;9.20;52.00;;;;;;5032298;28;20098;-45
2022/04/17 06:53:20;;;;;;;3.28;2.92;;;9.30;51.90;;;;;;5040635;28;20068;-45
2022/04/17 06:55:49;;;;;;;3.60;2.58;;;9.40;51.90;;;;;;5028154;28;20053;-48
2022/04/17 06:58:20;;;;;;;2.97;2.15;;;9.50;51.50;;;;;;5035683;28;20657;-49
2022/04/17 07:00:48;;;;;;;4.60;2.53;;;9.60;51.20;;;;;;5033637;28;20049;-44
2022/04/17 07:03:15;;;;;;;3.88;2.53;;;9.70;51.20;;;;;;5039845;28;20045;-45
2022/04/17 07:05:43;;;;;;;3.15;2.38;;;9.80;51.00;;;;;;5006349;28;20061;-44
2022/04/17 07:08:10;;;;;;;2.75;2.47;;;9.90;50.70;;;;;;5031695;28;20916;-46
2022/04/17 07:10:39;;;;;;;2.33;2.13;;;9.90;50.40;;;;;;5030709;28;20492;-46
2022/04/17 07:13:08;;;;;;;6.65;2.80;;;10.10;50.50;;;;;;5049041;28;20079;-44
2022/04/17 07:15:34;;;;;;;2.97;2.42;;;10.10;50.50;;;;;;5019454;28;20389;-45
2022/04/17 07:18:04;;;;;;;3.65;2.20;;;10.20;50.40;;;;;;5041210;28;20431;-48
2022/04/17 07:20:31;;;;;;;3.65;2.30;;;10.30;50.20;;;;;;5031902;28;20068;-46
2022/04/17 07:23:00;;;;;;;4.40;2.70;;;10.30;50.00;;;;;;5031886;28;20065;-46
2022/04/17 07:25:29;;;;;;;2.55;2.35;;;10.40;50.00;;;;;;5028150;28;20098;-45
2022/04/17 07:27:56;;;;;;;3.95;1.95;;;10.50;50.00;;;;;;5039479;28;20040;-46
2022/04/17 07:30:26;;;;;;;2.97;1.83;;;10.60;49.80;;;;;;5043120;28;20497;-44
2022/04/17 07:32:59;;;;;;;4.53;1.98;;;10.70;50.30;;;;;;5031106;28;20053;-45
2022/04/17 07:35:29;;;;;;;2.40;2.05;;;10.70;49.30;;;;;;5036342;28;20091;-46
2022/04/17 07:38:00;;;;;;;4.78;1.80;;;10.80;48.80;;;;;;5048450;28;20150;-45
2022/04/17 07:40:29;;;;;;;3.67;2.15;;;10.90;48.40;;;;;;5052374;28;20056;-44
2022/04/17 07:43:00;;;;;;;2.08;1.88;;;11.00;48.20;;;;;;5051436;28;20041;-45
2022/04/17 07:45:28;;;;;;;3.22;2.15;;;11.10;48.10;;;;;;5046597;28;20624;-45
2022/04/17 07:47:56;;;;;;;3.40;1.88;;;11.10;48.00;;;;;;5050135;28;20644;-45
2022/04/17 07:50:28;;;;;;;3.88;1.85;;;11.20;47.90;;;;;;5052170;28;20041;-45
2022/04/17 07:52:57;;;;;;;1.90;1.80;;;11.30;47.50;;;;;;5051593;28;20048;-45
2022/04/17 07:55:24;;;;;;;4.68;2.47;;;11.40;47.40;;;;;;5047820;28;20497;-49
2022/04/17 08:00:32;;;;;;;1.95;1.75;;;11.50;47.00;;;;;;5051406;28;20076;-48
2022/04/17 08:03:20;;;;;;;1.67;1.58;;;11.60;46.90;;;;;;5045821;28;20040;-44
2022/04/17 08:05:53;;;;;;;2.15;1.70;;;11.70;46.60;;;;;;5048077;28;20044;-44
2022/04/17 08:08:20;;;;;;;1.87;1.63;;;11.70;46.50;;;;;;5051582;28;20037;-47
2022/04/17 08:10:52;;;;;;;1.60;1.50;;;11.80;46.60;;;;;;5033743;28;20304;-45
2022/04/17 08:13:19;;;;;;;2.90;1.90;;;11.90;46.40;;;;;;5047875;28;20499;-50
2022/04/17 08:15:46;;;;;;;4.32;2.25;;;11.90;46.10;;;;;;5050871;28;20040;-44
2022/04/17 08:18:13;;;;;;;2.10;1.75;;;12.00;46.20;;;;;;5051322;28;20094;-46
2022/04/17 08:20:43;;;;;;;2.38;1.60;;;12.10;46.20;;;;;;5049563;28;20055;-49
2022/04/17 08:23:09;;;;;;;2.33;2.13;;;12.10;45.90;;;;;;5041517;28;20405;-45
2022/04/17 08:25:37;;;;;;;2.00;1.80;;;12.20;45.90;;;;;;5051418;28;20044;-46
2022/04/17 08:28:06;;;;;;;4.65;2.05;;;12.20;45.80;;;;;;5050134;28;20052;-46
2022/04/17 08:30:39;;;;;;;2.78;2.00;;;12.30;46.00;;;;;;5047452;28;20080;-44
2022/04/17 08:33:07;;;;;;;3.45;1.80;;;12.40;45.80;;;;;;5050339;28;20463;-46
2022/04/17 08:35:37;;;;;;;3.92;1.60;;;12.40;45.80;;;;;;5050438;28;20045;-45
2022/04/17 08:38:10;;;;;;;2.15;1.67;;;12.50;45.70;;;;;;5051437;28;20120;-46
2022/04/17 08:40:42;;;;;;;2.33;1.95;;;12.60;45.40;;;;;;5049873;28;20048;-45
2022/04/17 08:43:08;;;;;;;3.13;2.13;;;12.60;45.30;;;;;;5045962;28;20034;-45
2022/04/17 08:45:38;;;;;;;3.92;1.98;;;12.70;45.40;;;;;;5049729;28;20083;-44
2022/04/17 08:48:07;;;;;;;2.45;1.75;;;12.70;44.90;;;;;;5050403;28;20063;-46
2022/04/17 08:50:40;;;;;;;2.28;1.67;;;12.80;45.10;;;;;;5049985;28;20397;-48
2022/04/17 08:53:09;;;;;;;5.88;1.67;;;12.90;45.20;;;;;;5048409;28;20041;-46
2022/04/17 08:55:43;;;;;;;1.92;1.75;;;12.90;44.80;;;;;;5042734;28;20096;-49
2022/04/17 08:58:12;;;;;;;4.47;1.90;;;13.00;44.70;;;;;;5046833;28;20448;-46
2022/04/17 09:00:42;;;;;;;4.38;2.15;;;13.10;44.80;;;;;;5046126;28;20041;-49
2022/04/17 09:03:13;;;;;;;1.83;1.73;;;13.10;44.60;;;;;;5030067;28;20041;-48
2022/04/17 09:05:42;;;;;;;4.65;1.90;;;13.20;44.30;;;;;;5044421;28;20123;-45
2022/04/17 09:08:14;;;;;;;2.42;1.52;;;13.20;44.40;;;;;;5049232;28;20432;-45
2022/04/17 09:10:51;;;;;;;;;;;13.30;43.50;;;;;;5048496;28;20746;-45
2022/04/17 09:13:30;;;;;;;2.55;1.73;;;13.40;44.10;;;;;;5047533;28;19921;-48
2022/04/17 09:16:00;;;;;;;1.70;1.42;;;13.50;44.30;;;;;;5012310;28;20053;-48
2022/04/17 09:18:29;;;;;;;3.42;1.70;;;13.50;44.00;;;;;;5036766;28;20048;-45
2022/04/17 09:20:56;;;;;;;1.95;1.77;;;13.50;44.00;;;;;;5021162;28;20099;-44
2022/04/17 09:23:36;;;;;;;3.63;2.00;;;13.60;43.70;;;;;;5033789;28;20049;-46
2022/04/17 09:26:05;;;;;;;2.40;1.60;;;13.70;43.70;;;;;;5006058;28;20576;-46
2022/04/17 09:28:37;;;;;;;2.47;1.80;;;13.70;43.70;;;;;;5037093;28;20558;-45
2022/04/17 09:31:13;;;;;;;3.70;2.00;;;13.80;43.60;;;;;;5033429;28;20128;-47
2022/04/17 09:33:42;;;;;;;4.63;2.45;;;13.80;43.40;;;;;;5038661;28;20041;-45
2022/04/17 09:36:09;;;;;;;2.72;1.58;;;13.90;43.10;;;;;;5023828;28;20042;-46
2022/04/17 09:38:40;;;;;;;2.95;2.33;;;14.00;43.40;;;;;;5042100;28;20044;-44
2022/04/17 09:41:14;;;;;;;4.22;1.73;;;14.10;43.20;;;;;;5024836;28;20080;-44
2022/04/17 09:43:43;;;;;;;2.30;1.80;;;14.10;43.30;;;;;;5044378;28;20045;-47
2022/04/17 09:46:10;;;;;;;1.88;1.73;;;14.20;43.00;;;;;;5028061;28;20047;-45
2022/04/17 09:48:39;;;;;;;3.60;1.70;;;14.30;42.80;;;;;;5044259;28;20064;-46
2022/04/17 09:51:25;;;;;;;4.55;2.00;;;14.40;42.50;;;;;;5032610;28;20519;-46
2022/04/17 09:54:05;;;;;;;3.38;1.77;;;14.40;42.50;;;;;;5041805;28;20045;-50
2022/04/17 09:56:39;;;;;;;3.30;2.28;;;14.50;41.90;;;;;;5032028;28;20115;-49
2022/04/17 09:59:22;;;;;;;1.98;1.73;;;14.50;42.00;;;;;;5047137;28;20072;-49
2022/04/17 10:01:54;;;;;;;3.10;2.00;;;14.60;42.00;;;;;;5036261;28;20095;-50
2022/04/17 10:04:24;;;;;;;2.42;1.75;;;14.70;42.10;;;;;;5049496;28;20037;-48
2022/04/17 10:06:57;;;;;;;3.47;1.65;;;14.80;42.00;;;;;;5027733;28;20065;-47
2022/04/17 10:09:24;;;;;;;4.03;1.95;;;14.90;42.80;;;;;;5046533;28;20033;-45
2022/04/17 10:11:52;;;;;;;4.22;1.88;;;14.90;42.40;;;;;;5033756;28;20136;-48
2022/04/17 10:14:19;;;;;;;7.40;1.92;;;15.00;42.00;;;;;;5043936;28;20514;-47
2022/04/17 10:16:48;;;;;;;2.20;1.88;;;15.10;41.90;;;;;;5029108;28;20044;-45
2022/04/17 10:19:17;;;;;;;10.32;2.40;;;15.20;41.60;;;;;;5048442;28;20040;-48
2022/04/17 10:21:46;;;;;;;1.95;1.70;;;15.20;41.40;;;;;;5033900;28;20108;-46
2022/04/17 10:24:16;;;;;;;2.75;1.88;;;15.30;41.40;;;;;;5035381;28;20049;-48
2022/04/17 10:26:51;;;;;;;5.63;2.17;;;15.40;41.50;;;;;;5030983;28;20033;-47
2022/04/17 10:29:39;;;;;;;5.18;2.47;;;15.40;41.10;;;;;;5023255;28;20083;-45
2022/04/17 10:32:38;;;;;;;4.35;1.95;;;15.50;40.70;;;;;;5033274;28;20095;-45
2022/04/17 10:35:27;;;;;;;3.47;2.00;;;15.60;40.80;;;;;;5042551;28;20048;-46
2022/04/17 10:38:18;;;;;;;3.25;1.90;;;15.60;40.60;;;;;;5029722;28;20048;-46
2022/04/17 10:40:54;;;;;;;3.05;2.00;;;15.70;41.00;;;;;;5036275;28;20607;-45
2022/04/17 10:43:21;;;;;;;3.53;1.52;;;15.70;41.30;;;;;;5045625;28;20041;-46
2022/04/17 10:46:06;;;;;;;1.45;1.35;;;15.70;40.90;;;;;;5037491;28;20041;-46
2022/04/17 10:48:42;;;;;;;2.72;1.40;;;15.80;39.80;;;;;;5047308;28;20576;-46
2022/04/17 10:51:14;;;;;;;1.90;1.67;;;15.90;40.60;;;;;;5038509;28;20493;-45
2022/04/17 10:54:00;;;;;;;2.97;2.10;;;15.90;40.80;;;;;;5044321;28;20453;-49
2022/04/17 10:56:27;;;;;;;2.45;1.60;;;16.00;39.90;;;;;;5037288;28;20307;-49
2022/04/17 10:58:56;;;;;;;2.38;1.85;;;16.10;40.20;;;;;;5039560;28;20057;-47
2022/04/17 11:01:41;;;;;;;1.50;1.40;;;16.10;39.50;;;;;;5032408;28;20073;-49
2022/04/17 11:04:28;;;;;;;1.50;1.40;;;16.00;39.00;;;;;;5043942;28;20037;-48
2022/04/17 11:07:04;;;;;;;1.48;1.38;;;16.20;39.10;;;;;;5036905;28;20038;-46
2022/04/17 11:09:33;;;;;;;2.40;1.58;;;16.30;39.70;;;;;;5036470;28;20038;-46
2022/04/17 11:12:07;;;;;;;4.78;1.45;;;16.40;39.50;;;;;;5030255;28;20749;-46
2022/04/17 11:14:34;;;;;;;2.75;1.70;;;16.50;39.60;;;;;;5044557;28;20044;-44
2022/04/17 11:17:11;;;;;;;1.77;1.58;;;16.50;39.40;;;;;;5028627;28;20037;-49
2022/04/17 11:19:40;;;;;;;3.42;1.63;;;16.60;38.90;;;;;;5030314;28;20045;-49
2022/04/17 11:22:08;;;;;;;2.45;1.75;;;16.70;39.20;;;;;;5033988;28;20447;-46
2022/04/17 11:24:55;;;;;;;2.60;1.95;;;16.80;38.60;;;;;;5047374;28;20057;-44
2022/04/17 11:27:46;;;;;;;1.90;1.70;;;16.80;38.30;;;;;;5035305;28;20040;-48
2022/04/17 11:30:35;;;;;;;2.33;1.70;;;17.00;39.00;;;;;;5035237;28;20052;-45
2022/04/17 11:33:04;;;;;;;1.92;1.60;;;17.00;38.70;;;;;;5031364;28;20052;-46
2022/04/17 11:35:31;;;;;;;1.67;1.52;;;17.10;38.60;;;;;;5061417;22;20098;-43
2022/04/17 11:38:06;;;;;;;4.13;2.15;;;17.10;38.60;;;;;;5056092;28;20032;-49
2022/04/17 11:40:38;;;;;;;1.75;1.48;;;17.20;38.50;;;;;;5046510;28;20630;-47
2022/04/17 11:43:08;;;;;;;3.10;1.90;;;17.30;38.40;;;;;;5055538;28;20053;-46
2022/04/17 11:45:35;;;;;;;2.78;2.00;;;17.40;37.80;;;;;;5045653;28;20496;-44
2022/04/17 11:48:08;;;;;;;1.70;1.50;;;17.40;38.00;;;;;;5055315;28;20033;-48
2022/04/17 11:50:35;;;;;;;1.70;1.58;;;17.50;38.80;;;;;;5057337;28;20133;-45
2022/04/17 11:53:13;;;;;;;2.22;1.60;;;17.60;38.90;;;;;;5045017;28;20041;-48
2022/04/17 11:55:44;;;;;;;1.52;1.42;;;17.60;38.90;;;;;;5042611;28;20882;-47
2022/04/17 11:58:13;;;;;;;2.58;1.70;;;17.70;38.50;;;;;;5054743;28;20142;-49
2022/04/17 12:00:41;;;;;;;2.42;1.60;;;17.80;38.30;;;;;;5053281;28;20442;-44
2022/04/17 12:03:11;;;;;;;2.58;1.95;;;17.80;37.80;;;;;;5052452;28;20075;-49
2022/04/17 12:05:38;;;;;;;2.30;1.42;;;17.90;37.30;;;;;;5060242;28;20040;-45
2022/04/17 12:08:09;;;;;;;2.22;1.50;;;18.00;37.10;;;;;;5053024;28;20519;-48
2022/04/17 12:10:42;;;;;;;2.38;1.58;;;18.10;37.80;;;;;;5054631;28;20128;-45
2022/04/17 12:13:14;;;;;;;1.85;1.48;;;18.10;37.10;;;;;;5054488;28;20041;-46
2022/04/17 12:15:42;;;;;;;2.30;1.42;;;18.20;37.10;;;;;;5056092;28;20044;-45
2022/04/17 12:18:09;;;;;;;2.50;1.40;;;18.30;37.40;;;;;;5054145;28;20037;-45
2022/04/17 12:20:38;;;;;;;2.55;1.40;;;18.40;37.40;;;;;;5061570;28;20049;-45
2022/04/17 12:23:05;;;;;;;2.85;1.30;;;18.50;37.00;;;;;;5046266;28;20055;-49
2022/04/17 12:25:32;;;;;;;3.10;1.45;;;18.60;36.90;;;;;;5065662;28;20496;-47
2022/04/17 12:27:59;;;;;;;1.92;1.58;;;18.60;36.80;;;;;;5048824;28;20079;-46
2022/04/17 12:30:28;;;;;;;1.45;1.33;;;18.70;36.30;;;;;;5032323;28;20067;-49
2022/04/17 12:32:59;;;;;;;1.92;1.60;;;18.80;36.20;;;;;;5049171;28;20526;-49
2022/04/17 12:35:28;;;;;;;2.17;1.00;;;18.90;36.10;;;;;;5052401;28;20041;-47
2022/04/17 12:38:10;;;;;;;2.07;1.27;;;19.00;35.90;;;;;;5049331;28;20328;-49
2022/04/17 12:40:43;;;;;;;1.08;0.90;;;19.10;34.90;;;;;;5056510;28;20283;-44
2022/04/17 12:43:18;;;;;;;1.42;1.10;;;19.10;34.70;;;;;;5039905;28;20389;-46
2022/04/17 12:45:55;;;;;;;2.22;1.85;;;19.20;34.70;;;;;;5057773;28;20045;-44
2022/04/17 12:48:34;;;;;;;1.80;1.27;;;19.30;35.10;;;;;;5061491;28;20771;-45
2022/04/17 12:51:03;;;;;;;3.20;1.40;;;19.40;34.30;;;;;;5043786;28;20106;-44
2022/04/17 12:53:38;;;;;;;2.00;1.60;;;19.40;34.50;;;;;;5054968;28;20056;-46
2022/04/17 12:56:06;;;;;;;2.30;1.13;;;19.50;34.90;;;;;;5054223;28;21522;-44
2022/04/17 12:58:59;;;;;;;2.92;1.08;;;19.60;34.80;;;;;;5063493;28;20072;-46
2022/04/17 13:01:31;;;;;;;2.15;1.08;;;19.70;33.90;;;;;;5048394;28;20639;-47
2022/04/17 13:04:20;;;;;;;1.23;0.70;;;19.80;34.40;;;;;;5042862;28;20040;-54
2022/04/17 13:06:51;;;;;;;1.00;0.90;;;20.00;33.60;;;;;;5040637;28;20110;-55
2022/04/17 13:09:18;;;;;;;1.23;0.80;;;20.10;33.90;;;;;;5056093;28;20045;-52
2022/04/17 13:11:53;;;;;;;1.60;1.27;;;20.20;33.80;;;;;;5032301;28;20266;-55
2022/04/17 13:14:21;;;;;;;4.55;1.08;;;20.30;33.60;;;;;;5049286;28;20103;-55
2022/04/17 13:16:49;;;;;;;2.00;1.00;;;20.40;33.50;;;;;;5043996;28;20560;-54
2022/04/17 13:19:18;;;;;;;1.33;1.02;;;20.60;32.90;;;;;;5057954;28;20046;-55
2022/04/17 13:21:47;;;;;;;1.45;0.93;;;20.70;33.30;;;;;;5051952;28;20052;-55
2022/04/17 13:24:16;;;;;;;1.70;0.98;;;20.80;32.90;;;;;;5059254;28;20574;-53